Immanuel Mission, Arizona
Current Conditions -  °F | °C
As of 9:53 PM on Friday 31 Oct 2014 (Local Time) from KCEZ Reporting Station
Few Clouds Few Clouds  
Wind Chill: 60°   Ceiling: Unl
Heat Index: 60°   Visibility: 10mi
Dew Point: 35°   Wind: 16mph
Humidity: 39%   Direction: 140°SE
Pressure: 30.13"   Gusts: 40mph
Location:  36.7518°N, 109.365°W
Report Text: KCEZ 010353Z AUTO 14014G35KT 10SM FEW085 16/02 A3013 RMK AO2 PK WND 15035/0344 SLP142 T01560017
Loading
Personal Weather Stations






























Interactive Weather Map
Tropical Storm Tracking
New forecast layout! Learn more

10-Day Weather Forecast

Advertisements
Track Severe Weather on mobile